GRO weather

Girona Airport
Girona, Girona, Spain

Public forecast

Using degrees Celsius for public forecast. Weather courtesy of forecast.io.

Current aviation weather report (METAR) for Girona Airport

Retrieved 2019/10/21 21:30 UTC (8 minutes ago):

LEGE 212130Z 05002KT 8000 FEW030 BKN090 13/13 Q1019

Aviation forecast (TAF) for Girona Airport

Retrieved 2019/10/21 18:27 UTC (3 hours ago):

TAF LEGE 211700Z 2118/2218 36004KT 9999 BKN030 TX19/2213Z TN13/2206Z TEMPO 2118/2206 3000 SHRA FEW015TCU BKN020 BECMG 2204/2206 36014KT TEMPO 2206/2218 36015G25KT 2000 TSRA SCT025CB OVC030